Time;durP1;ratioP1;P1;durP2;ratioP2;P2;SDS_P1;SDS_P2;PMS_P1;PMS_P2;Temp;Humidity;BMP_temperature;BMP_pressure;BME280_temperature;BME280_humidity;BME280_pressure;Samples;Min_cycle;Max_cycle;Signal;HPM_P1;HPM_P2
2022/03/08 00:01:29;;;;;;;22.08;14.05;;;;;;;-0.14;73.37;94555.78;5064291;28;20468;-74
2022/03/08 00:03:55;;;;;;;19.75;13.20;;;;;;;-0.18;73.37;94554.25;5071180;28;20029;-74
2022/03/08 00:06:21;;;;;;;25.90;14.63;;;;;;;-0.24;73.68;94546.88;5072396;28;20071;-74
2022/03/08 00:08:46;;;;;;;21.63;13.35;;;;;;;-0.21;73.22;94548.47;5071276;28;20030;-74
2022/03/08 00:11:12;;;;;;;20.13;12.88;;;;;;;-0.21;73.45;94551.00;5055305;28;20047;-74
2022/03/08 00:13:37;;;;;;;21.30;12.63;;;;;;;-0.18;73.26;94554.25;5082661;28;20399;-74
2022/03/08 00:16:03;;;;;;;18.33;12.68;;;;;;;-0.21;73.25;94545.91;5072148;28;20502;-74
2022/03/08 00:18:28;;;;;;;19.45;12.77;;;;;;;-0.19;72.68;94550.06;5071921;28;20507;-74
2022/03/08 00:20:53;;;;;;;20.02;12.35;;;;;;;-0.24;73.21;94559.63;5089416;28;20040;-74
2022/03/08 00:23:19;;;;;;;18.42;12.82;;;;;;;-0.27;73.11;94552.13;5089337;28;20024;-74
2022/03/08 00:25:44;;;;;;;19.13;12.43;;;;;;;-0.24;73.12;94557.09;5059301;28;20484;-74
2022/03/08 00:28:10;;;;;;;18.40;12.15;;;;;;;-0.22;73.78;94560.41;5055188;28;20036;-74
2022/03/08 00:30:35;;;;;;;19.75;13.40;;;;;;;-0.20;73.01;94556.03;5087065;28;20028;-74
2022/03/08 00:33:01;;;;;;;18.05;12.35;;;;;;;-0.17;72.59;94553.34;5070689;28;20062;-74
2022/03/08 00:35:26;;;;;;;20.63;12.95;;;;;;;-0.21;72.55;94540.81;5070493;28;20039;-74
2022/03/08 00:37:52;;;;;;;21.63;13.80;;;;;;;-0.12;72.22;94548.03;5057743;28;20039;-74
2022/03/08 00:40:19;;;;;;;22.08;13.27;;;;;;;-0.24;72.08;94519.59;5087300;28;20133;-74
2022/03/08 00:42:45;;;;;;;18.35;13.05;;;;;;;-0.11;72.25;94540.31;5054046;28;20414;-74
2022/03/08 00:45:10;;;;;;;17.63;12.30;;;;;;;-0.13;72.24;94549.75;5053598;28;20029;-74
2022/03/08 00:47:36;;;;;;;19.10;13.15;;;;;;;-0.21;72.21;94544.19;5087944;28;20032;-74
2022/03/08 00:50:03;;;;;;;21.20;13.77;;;;;;;-0.18;72.23;94541.47;5064457;28;20280;-74
2022/03/08 00:52:28;;;;;;;21.95;13.90;;;;;;;-0.26;72.10;94546.94;5072013;28;20547;-74
2022/03/08 00:54:54;;;;;;;28.30;15.85;;;;;;;-0.27;72.10;94532.50;5067703;28;20036;-74
2022/03/08 00:57:19;;;;;;;24.83;14.93;;;;;;;-0.18;72.04;94544.03;5054555;28;20055;-74
2022/03/08 00:59:44;;;;;;;26.67;16.95;;;;;;;-0.15;71.88;94543.88;5071150;28;20048;-74
2022/03/08 01:02:10;;;;;;;27.70;16.50;;;;;;;-0.19;71.99;94536.47;5081927;28;20024;-74
2022/03/08 01:04:35;;;;;;;26.35;15.73;;;;;;;-0.17;72.31;94534.66;5069942;28;20145;-74
2022/03/08 01:07:01;;;;;;;25.17;16.25;;;;;;;-0.13;72.37;94536.19;5084260;28;20036;-74
2022/03/08 01:09:26;;;;;;;23.35;14.85;;;;;;;-0.06;71.94;94538.34;5086423;28;20028;-74
2022/03/08 01:11:52;;;;;;;21.50;14.88;;;;;;;-0.07;71.76;94531.59;5075918;28;20055;-74
2022/03/08 01:14:17;;;;;;;22.88;15.02;;;;;;;-0.03;72.17;94534.84;5090143;28;20032;-74
2022/03/08 01:16:42;;;;;;;20.80;13.43;;;;;;;-0.05;72.03;94529.00;5087945;28;20051;-74
2022/03/08 01:19:08;;;;;;;22.25;14.48;;;;;;;-0.03;72.03;94538.25;5070675;28;20028;-74
2022/03/08 01:21:36;;;;;;;21.92;13.73;;;;;;;-0.05;71.81;94529.81;5089608;28;20039;-74
2022/03/08 01:24:03;;;;;;;22.15;13.68;;;;;;;-0.05;72.30;94524.72;5076198;28;20071;-74
2022/03/08 01:26:28;;;;;;;21.92;14.52;;;;;;;-0.02;71.81;94524.56;5052328;28;20434;-74
2022/03/08 01:28:53;;;;;;;21.95;14.18;;;;;;;0.03;72.11;94531.16;5076666;28;20032;-73
2022/03/08 01:31:19;;;;;;;23.10;14.43;;;;;;;0.03;71.75;94520.97;5083432;28;20029;-74
2022/03/08 01:33:44;;;;;;;23.13;13.73;;;;;;;0.00;71.66;94514.28;5079809;28;20040;-74
2022/03/08 01:36:11;;;;;;;23.02;14.20;;;;;;;0.00;71.55;94516.84;5070650;28;20032;-74
2022/03/08 01:38:36;;;;;;;24.60;14.88;;;;;;;-0.09;71.24;94512.13;5069529;28;20044;-74
2022/03/08 01:41:02;;;;;;;23.67;14.73;;;;;;;-0.08;71.53;94517.19;5053027;28;20410;-74
2022/03/08 01:43:27;;;;;;;20.95;13.98;;;;;;;-0.07;71.78;94513.72;5077748;28;20479;-74
2022/03/08 01:45:52;;;;;;;25.00;16.77;;;;;;;-0.06;71.10;94517.09;5069347;28;20437;-74
2022/03/08 01:48:18;;;;;;;22.33;16.05;;;;;;;-0.08;71.11;94518.91;5070124;28;20024;-74
2022/03/08 01:50:43;;;;;;;21.50;15.07;;;;;;;-0.04;70.80;94531.47;5050127;28;20058;-74
2022/03/08 01:53:09;;;;;;;20.92;14.68;;;;;;;-0.08;70.42;94518.91;5086535;28;20021;-74
2022/03/08 01:55:34;;;;;;;21.45;14.98;;;;;;;-0.17;70.39;94522.69;5081071;28;20020;-73
2022/03/08 01:58:00;;;;;;;22.08;13.88;;;;;;;-0.21;70.75;94521.19;5070411;28;20024;-74
2022/03/08 02:00:27;;;;;;;20.52;13.43;;;;;;;-0.26;70.01;94518.03;5069385;28;20059;-74
2022/03/08 02:02:53;;;;;;;20.73;13.80;;;;;;;-0.25;70.11;94517.97;5075154;28;20459;-74
2022/03/08 02:05:19;;;;;;;21.27;14.18;;;;;;;-0.28;70.26;94517.25;5068370;28;20044;-74
2022/03/08 02:07:44;;;;;;;18.42;12.85;;;;;;;-0.24;70.17;94523.91;5070812;28;20161;-74
2022/03/08 02:10:09;;;;;;;21.80;15.27;;;;;;;-0.29;70.47;94525.81;5082881;28;20062;-73
2022/03/08 02:12:35;;;;;;;20.58;14.63;;;;;;;-0.32;70.09;94520.84;5071254;28;20056;-74
2022/03/08 02:15:20;;;;;;;22.63;14.82;;;;;;;-0.28;70.39;94527.47;5086240;28;20032;-74
2022/03/08 02:17:45;;;;;;;21.58;14.80;;;;;;;-0.26;70.80;94533.34;5082604;28;20543;-74
2022/03/08 02:20:11;;;;;;;21.98;14.40;;;;;;;-0.25;70.58;94524.81;5060337;28;20033;-75
2022/03/08 02:22:36;;;;;;;21.88;14.60;;;;;;;-0.25;70.54;94532.47;5085940;28;20031;-74
2022/03/08 02:25:03;;;;;;;22.17;14.55;;;;;;;-0.26;70.26;94535.91;5067856;28;20113;-74
2022/03/08 02:27:28;;;;;;;23.05;14.05;;;;;;;-0.25;70.38;94537.56;5053636;28;20032;-74
2022/03/08 02:29:54;;;;;;;22.23;14.75;;;;;;;-0.24;70.25;94539.22;5052674;28;20097;-74
2022/03/08 02:32:19;;;;;;;20.77;13.65;;;;;;;-0.27;69.96;94534.25;5068820;28;20483;-74
2022/03/08 02:34:45;;;;;;;23.80;15.15;;;;;;;-0.28;69.85;94532.56;5068333;28;20036;-74
2022/03/08 02:37:13;;;;;;;24.05;14.43;;;;;;;-0.31;69.91;94532.72;5061927;28;20482;-73
2022/03/08 02:39:39;;;;;;;21.92;14.57;;;;;;;-0.29;69.28;94534.31;5071191;28;20413;-73
2022/03/08 02:42:04;;;;;;;23.00;15.15;;;;;;;-0.29;69.29;94541.13;5054930;28;20111;-73
2022/03/08 02:44:30;;;;;;;24.52;15.25;;;;;;;-0.26;69.98;94541.81;5057516;28;20032;-73
2022/03/08 02:46:56;;;;;;;23.00;14.32;;;;;;;-0.26;69.99;94536.72;5073910;28;20086;-73
2022/03/08 02:49:21;;;;;;;21.55;14.65;;;;;;;-0.28;69.65;94538.53;5085249;28;20406;-73
2022/03/08 02:51:47;;;;;;;21.52;13.43;;;;;;;-0.26;70.25;94544.38;5056114;28;20490;-73
2022/03/08 02:54:12;;;;;;;23.98;14.93;;;;;;;-0.31;69.69;94543.75;5076112;28;20412;-74
2022/03/08 02:56:38;;;;;;;23.15;14.30;;;;;;;-0.27;70.16;94552.13;5089314;28;20092;-73
2022/03/08 02:59:03;;;;;;;23.55;14.30;;;;;;;-0.32;70.82;94551.50;5094132;28;20028;-73
2022/03/08 03:01:29;;;;;;;20.73;14.30;;;;;;;-0.33;71.29;94550.66;5065077;28;20103;-73
2022/03/08 03:03:54;;;;;;;21.92;14.45;;;;;;;-0.39;71.08;94550.09;5081260;28;20036;-73
2022/03/08 03:06:19;;;;;;;23.77;14.20;;;;;;;-0.43;70.66;94543.47;5080159;28;20024;-73
2022/03/08 03:08:45;;;;;;;24.88;13.77;;;;;;;-0.41;70.20;94544.25;5092396;28;20028;-73
2022/03/08 03:11:10;;;;;;;23.63;14.32;;;;;;;-0.42;70.62;94545.13;5069614;28;20055;-73
2022/03/08 03:13:36;;;;;;;24.58;14.85;;;;;;;-0.39;70.47;94555.19;5072401;28;20433;-73
2022/03/08 03:16:01;;;;;;;21.08;13.27;;;;;;;-0.43;70.26;94549.41;5072950;28;20071;-73
2022/03/08 03:18:26;;;;;;;20.92;13.57;;;;;;;-0.30;68.94;94557.38;5073238;28;20106;-73
2022/03/08 03:20:52;;;;;;;21.05;13.65;;;;;;;-0.35;69.13;94562.66;5086985;28;20106;-73
2022/03/08 03:23:17;;;;;;;21.17;12.90;;;;;;;-0.43;69.38;94559.63;5057422;28;20025;-73
2022/03/08 03:25:43;;;;;;;20.67;12.48;;;;;;;-0.47;68.94;94569.16;5073077;28;20036;-73
2022/03/08 03:28:08;;;;;;;19.83;13.48;;;;;;;-0.56;69.42;94561.88;5072020;28;20414;-74
2022/03/08 03:30:34;;;;;;;20.90;13.15;;;;;;;-0.62;69.50;94561.31;5072982;28;20502;-73
2022/03/08 03:33:01;;;;;;;19.98;13.18;;;;;;;-0.57;69.63;94570.44;5088042;28;20486;-73
2022/03/08 03:35:26;;;;;;;24.60;15.40;;;;;;;-0.68;70.72;94554.75;5071894;28;20028;-73
2022/03/08 03:37:52;;;;;;;27.17;15.38;;;;;;;-0.62;70.37;94563.88;5080548;28;20089;-73
2022/03/08 03:40:17;;;;;;;28.40;16.60;;;;;;;-0.61;70.55;94561.25;5091410;28;20051;-73
2022/03/08 03:42:43;;;;;;;30.05;17.33;;;;;;;-0.63;70.39;94557.13;5084482;28;20521;-73
2022/03/08 03:45:08;;;;;;;32.85;18.10;;;;;;;-0.61;70.90;94556.16;5084332;28;20036;-73
2022/03/08 03:47:34;;;;;;;27.75;16.40;;;;;;;-0.57;70.93;94569.59;5089305;28;20049;-73
2022/03/08 03:49:59;;;;;;;25.75;15.35;;;;;;;-0.61;70.49;94560.41;5075217;28;20072;-73
2022/03/08 03:52:25;;;;;;;24.77;14.98;;;;;;;-0.58;70.71;94561.13;5073645;28;20027;-73
2022/03/08 03:54:50;;;;;;;27.25;15.68;;;;;;;-0.55;70.47;94561.00;5066028;28;20058;-73
2022/03/08 03:57:15;;;;;;;24.92;15.32;;;;;;;-0.61;70.98;94562.97;5071421;28;20037;-73
2022/03/08 03:59:41;;;;;;;23.65;14.90;;;;;;;-0.63;71.49;94568.16;5068543;28;20510;-73
2022/03/08 04:02:06;;;;;;;25.60;15.63;;;;;;;-0.64;71.64;94558.84;5071678;28;20067;-73
2022/03/08 04:04:32;;;;;;;21.95;15.50;;;;;;;-0.62;71.52;94564.69;5070178;28;20122;-73
2022/03/08 04:06:57;;;;;;;24.88;15.82;;;;;;;-0.69;71.51;94553.94;5079761;28;20028;-73
2022/03/08 04:09:22;;;;;;;26.30;16.67;;;;;;;-0.62;72.03;94564.69;5074052;28;20429;-73
2022/03/08 04:11:48;;;;;;;26.08;15.88;;;;;;;-0.64;72.09;94561.41;5083622;28;20056;-73
2022/03/08 04:14:13;;;;;;;26.55;16.55;;;;;;;-0.57;71.94;94570.44;5082181;28;20410;-73
2022/03/08 04:16:39;;;;;;;28.70;17.95;;;;;;;-0.60;72.23;94560.34;5088097;28;20032;-73
2022/03/08 04:19:04;;;;;;;53.05;32.38;;;;;;;-0.55;71.57;94570.38;5089460;28;20107;-73
2022/03/08 04:21:30;;;;;;;31.05;20.88;;;;;;;-0.61;72.04;94563.81;5091849;28;20036;-73
2022/03/08 04:23:55;;;;;;;30.77;19.50;;;;;;;-0.56;72.62;94564.41;5091996;28;20047;-73
2022/03/08 04:26:20;;;;;;;24.90;15.68;;;;;;;-0.52;72.28;94576.16;5073340;28;20069;-73
2022/03/08 04:28:46;;;;;;;25.85;15.48;;;;;;;-0.52;72.71;94565.97;5075613;28;20032;-73
2022/03/08 04:31:11;;;;;;;28.85;19.55;;;;;;;-0.65;72.34;94549.50;5071242;28;20509;-73
2022/03/08 04:33:37;;;;;;;28.45;16.52;;;;;;;-0.53;72.43;94569.41;5050929;28;20027;-73
2022/03/08 04:36:03;;;;;;;26.25;15.30;;;;;;;-0.54;72.33;94567.75;5071012;28;20035;-73
2022/03/08 04:38:28;;;;;;;25.17;15.65;;;;;;;-0.55;72.24;94561.00;5053110;28;20056;-73
2022/03/08 04:40:54;;;;;;;25.63;15.82;;;;;;;-0.59;72.77;94553.53;5075096;28;20024;-73
2022/03/08 04:43:19;;;;;;;25.88;16.20;;;;;;;-0.51;72.78;94562.50;5090974;28;20032;-73
2022/03/08 04:45:45;;;;;;;26.88;16.67;;;;;;;-0.48;72.49;94553.88;5091092;28;20040;-73
2022/03/08 04:48:11;;;;;;;26.48;17.50;;;;;;;-0.53;72.41;94554.09;5090114;28;20218;-73
2022/03/08 04:50:36;;;;;;;28.33;17.42;;;;;;;-0.52;72.27;94557.47;5060927;28;20044;-73
2022/03/08 04:53:03;;;;;;;40.90;22.45;;;;;;;-0.50;72.02;94559.06;5052735;28;20294;-73
2022/03/08 04:55:28;;;;;;;36.10;22.25;;;;;;;-0.58;71.82;94558.56;5052966;28;20029;-73
2022/03/08 04:57:53;;;;;;;37.38;22.02;;;;;;;-0.49;72.09;94559.91;5068972;28;20028;-73
2022/03/08 05:00:19;;;;;;;37.70;21.58;;;;;;;-0.48;72.16;94570.03;5056037;28;20487;-73
2022/03/08 05:02:45;;;;;;;34.70;20.33;;;;;;;-0.45;72.28;94558.84;5069277;28;20054;-73
2022/03/08 05:05:11;;;;;;;29.65;17.25;;;;;;;-0.46;72.55;94560.56;5066430;28;20032;-73
2022/03/08 05:07:36;;;;;;;29.98;18.25;;;;;;;-0.47;72.39;94564.03;5069478;28;20024;-73
2022/03/08 05:10:09;;;;;;;29.15;18.27;;;;;;;-0.44;72.41;94560.53;5070594;28;20533;-73
2022/03/08 05:12:35;;;;;;;29.00;17.90;;;;;;;-0.44;72.06;94567.34;5068310;28;20113;-73
2022/03/08 05:15:00;;;;;;;31.30;17.85;;;;;;;-0.48;72.09;94567.47;5055108;28;20036;-73
2022/03/08 05:17:26;;;;;;;27.00;16.58;;;;;;;-0.47;71.66;94568.31;5083435;28;20401;-73
2022/03/08 05:19:51;;;;;;;30.02;18.05;;;;;;;-0.46;71.06;94569.97;5072130;28;20040;-73
2022/03/08 05:22:17;;;;;;;31.35;18.23;;;;;;;-0.45;70.87;94566.50;5086217;28;20023;-74
2022/03/08 05:24:43;;;;;;;26.45;16.20;;;;;;;-0.46;71.17;94569.97;5091360;28;20043;-73
2022/03/08 05:27:08;;;;;;;27.13;17.13;;;;;;;-0.50;71.19;94566.72;5069805;28;20081;-73
2022/03/08 05:29:34;;;;;;;26.80;16.55;;;;;;;-0.50;70.80;94574.38;5055483;28;20475;-73
2022/03/08 05:31:59;;;;;;;28.90;16.80;;;;;;;-0.46;71.57;94575.88;5090649;28;20032;-73
2022/03/08 05:34:25;;;;;;;27.08;17.05;;;;;;;-0.44;71.42;94557.97;5088470;28;20028;-73
2022/03/08 05:36:50;;;;;;;30.08;16.88;;;;;;;-0.40;71.26;94564.59;5082530;28;20029;-73
2022/03/08 05:39:16;;;;;;;27.63;16.55;;;;;;;-0.44;71.23;94568.19;5050432;28;20040;-73
2022/03/08 05:41:41;;;;;;;28.85;17.67;;;;;;;-0.36;71.25;94566.13;5070655;28;20107;-73
2022/03/08 05:44:07;;;;;;;27.92;16.48;;;;;;;-0.31;70.92;94573.56;5089083;28;20107;-73
2022/03/08 05:46:32;;;;;;;32.25;18.95;;;;;;;-0.30;71.14;94570.13;5086814;28;20033;-73
2022/03/08 05:48:57;;;;;;;28.73;17.15;;;;;;;-0.41;71.27;94572.31;5085724;28;20028;-73
2022/03/08 05:51:23;;;;;;;30.50;18.73;;;;;;;-0.43;71.41;94576.66;5088879;28;20085;-73
2022/03/08 05:53:49;;;;;;;32.60;19.45;;;;;;;-0.37;71.26;94568.72;5071571;28;20102;-73
2022/03/08 05:56:14;;;;;;;31.73;19.73;;;;;;;-0.30;71.44;94577.78;5051258;28;20045;-73
2022/03/08 05:58:39;;;;;;;37.30;20.30;;;;;;;-0.27;71.06;94580.19;5070365;28;20029;-73
2022/03/08 06:01:05;;;;;;;31.13;18.17;;;;;;;-0.32;70.98;94577.00;5068779;28;20032;-73
2022/03/08 06:03:30;;;;;;;27.65;18.67;;;;;;;-0.27;70.78;94575.09;5051516;28;20033;-73
2022/03/08 06:05:56;;;;;;;31.10;18.63;;;;;;;-0.26;70.99;94580.13;5083415;28;20078;-73
2022/03/08 06:08:21;;;;;;;31.38;18.63;;;;;;;-0.23;70.96;94572.31;5089096;28;20032;-73
2022/03/08 06:10:47;;;;;;;32.08;18.73;;;;;;;-0.23;70.91;94579.16;5089181;28;20032;-73
2022/03/08 06:13:12;;;;;;;35.08;20.02;;;;;;;-0.24;70.73;94574.97;5082850;28;20028;-73
2022/03/08 06:15:38;;;;;;;31.25;18.70;;;;;;;-0.16;70.45;94578.00;5069820;28;20040;-73
2022/03/08 06:18:03;;;;;;;29.98;18.25;;;;;;;-0.11;71.12;94590.53;5081951;28;20032;-73
2022/03/08 06:20:29;;;;;;;34.47;19.45;;;;;;;-0.18;70.66;94571.31;5081053;28;20024;-73
2022/03/08 06:22:54;;;;;;;31.60;20.23;;;;;;;-0.15;70.57;94582.19;5080180;28;20035;-73
2022/03/08 06:25:20;;;;;;;36.25;20.00;;;;;;;-0.13;70.27;94584.69;5093431;28;20032;-73
2022/03/08 06:27:45;;;;;;;34.55;19.58;;;;;;;-0.15;70.71;94594.13;5079735;28;20085;-73
2022/03/08 06:30:11;;;;;;;31.05;19.00;;;;;;;-0.11;70.23;94596.50;5056387;28;20036;-73
2022/03/08 06:32:36;;;;;;;31.63;18.85;;;;;;;-0.05;70.32;94595.41;5073143;28;20325;-73
2022/03/08 06:35:02;;;;;;;32.80;19.58;;;;;;;-0.19;70.53;94593.47;5076903;28;20050;-73
2022/03/08 06:37:28;;;;;;;34.85;20.80;;;;;;;-0.12;70.57;94599.94;5094661;28;20397;-73
2022/03/08 06:39:53;;;;;;;31.85;19.92;;;;;;;-0.10;70.50;94600.69;5079887;28;20048;-73
2022/03/08 06:42:18;;;;;;;34.35;20.92;;;;;;;-0.02;70.20;94601.19;5072831;28;20021;-73
2022/03/08 06:44:44;;;;;;;35.00;19.55;;;;;;;0.03;70.44;94600.13;5073044;28;20029;-73
2022/03/08 06:47:10;;;;;;;50.13;30.17;;;;;;;0.06;70.63;94598.28;5072832;28;20457;-73
2022/03/08 06:49:39;;;;;;;33.30;21.05;;;;;;;0.05;70.39;94598.34;5077292;28;20031;-73
2022/03/08 06:52:05;;;;;;;63.20;40.42;;;;;;;0.02;70.17;94599.31;5056781;28;20656;-73
2022/03/08 06:54:30;;;;;;;35.97;22.10;;;;;;;0.10;69.91;94604.91;5083737;28;20066;-73
2022/03/08 06:56:56;;;;;;;30.88;19.05;;;;;;;0.11;69.92;94603.19;5057064;28;20032;-73
2022/03/08 06:59:21;;;;;;;29.95;17.42;;;;;;;0.16;69.19;94606.34;5067681;28;20031;-73
2022/03/08 07:01:47;;;;;;;29.77;19.85;;;;;;;0.19;69.48;94601.09;5094004;28;20024;-73
2022/03/08 07:04:12;;;;;;;32.42;22.15;;;;;;;0.16;69.76;94594.41;5088914;28;20039;-73
2022/03/08 07:06:39;;;;;;;31.80;20.67;;;;;;;0.18;70.10;94591.78;5055351;28;20048;-73
2022/03/08 07:09:04;;;;;;;34.22;21.52;;;;;;;0.22;69.64;94593.28;5073547;28;20083;-74
2022/03/08 07:11:31;;;;;;;29.83;18.95;;;;;;;0.25;69.25;94598.25;5057256;28;20486;-73
2022/03/08 07:13:56;;;;;;;31.63;20.70;;;;;;;0.27;69.57;94601.59;5091947;28;20043;-73
2022/03/08 07:16:22;;;;;;;45.83;26.92;;;;;;;0.33;69.90;94603.84;5092495;28;20027;-73
2022/03/08 07:18:48;;;;;;;40.47;24.45;;;;;;;0.37;69.66;94602.00;5092648;28;20043;-73
2022/03/08 07:21:13;;;;;;;43.83;24.67;;;;;;;0.35;69.15;94602.06;5093654;28;20035;-73
2022/03/08 07:23:39;;;;;;;43.90;25.35;;;;;;;0.37;69.52;94600.28;5071604;28;20048;-73
2022/03/08 07:26:04;;;;;;;42.67;25.00;;;;;;;0.37;69.72;94597.72;5075243;28;20040;-73
2022/03/08 07:28:30;;;;;;;42.92;24.23;;;;;;;0.35;69.26;94599.50;5065927;28;20521;-74
2022/03/08 07:30:55;;;;;;;40.22;22.45;;;;;;;0.36;69.21;94603.72;5071507;28;20114;-73
2022/03/08 07:33:21;;;;;;;46.42;26.42;;;;;;;0.40;69.43;94599.31;5073357;28;20032;-73
2022/03/08 07:35:46;;;;;;;44.60;25.30;;;;;;;0.41;68.77;94596.66;5055196;28;20028;-73
2022/03/08 07:38:11;;;;;;;60.05;33.47;;;;;;;0.31;68.88;94592.06;5071667;28;20479;-72
2022/03/08 07:40:37;;;;;;;40.95;23.83;;;;;;;0.26;68.98;94589.72;5073075;28;20035;-73
2022/03/08 07:43:02;;;;;;;38.03;19.20;;;;;;;0.26;69.19;94594.00;5073129;28;20402;-73
2022/03/08 07:45:29;;;;;;;29.63;18.75;;;;;;;0.29;70.08;94594.69;5071508;28;20090;-73
2022/03/08 07:47:54;;;;;;;34.10;19.17;;;;;;;0.25;69.13;94598.25;5073981;28;20038;-73
2022/03/08 07:50:22;;;;;;;28.77;18.50;;;;;;;0.13;69.27;94588.63;5071188;28;20028;-73
2022/03/08 07:52:47;;;;;;;29.38;19.17;;;;;;;0.20;69.51;94595.94;5055558;28;20051;-73
2022/03/08 07:55:12;;;;;;;35.63;20.88;;;;;;;0.18;69.41;94584.13;5054888;28;20492;-72
2022/03/08 07:57:38;;;;;;;31.27;19.40;;;;;;;0.22;68.89;94593.28;5071455;28;20116;-73
2022/03/08 08:00:04;;;;;;;28.77;18.27;;;;;;;0.27;69.05;94593.91;5071552;28;20491;-73
2022/03/08 08:02:30;;;;;;;27.38;18.17;;;;;;;0.22;69.03;94588.19;5071605;28;20469;-73
2022/03/08 08:04:56;;;;;;;30.52;18.67;;;;;;;0.29;68.94;94596.41;5071436;28;20093;-72
2022/03/08 08:07:21;;;;;;;26.48;16.38;;;;;;;0.28;68.69;94594.72;5054655;28;20070;-73
2022/03/08 08:09:47;;;;;;;23.60;15.60;;;;;;;0.17;68.70;94595.25;5072536;28;20025;-73
2022/03/08 08:12:12;;;;;;;25.02;15.23;;;;;;;0.20;68.58;94595.94;5072357;28;20032;-71
2022/03/08 08:14:39;;;;;;;23.05;15.65;;;;;;;0.21;68.80;94592.47;5072959;28;20039;-72
2022/03/08 08:17:05;;;;;;;24.55;15.23;;;;;;;0.05;68.42;94581.28;5071238;28;20076;-73
2022/03/08 08:19:30;;;;;;;24.63;15.02;;;;;;;0.13;68.58;94604.75;5072839;28;20028;-72
2022/03/08 08:21:56;;;;;;;23.13;14.63;;;;;;;0.13;68.30;94594.53;5072266;28;20546;-72
2022/03/08 08:24:21;;;;;;;23.33;15.00;;;;;;;0.08;67.93;94598.22;5054552;28;20028;-73
2022/03/08 08:26:47;;;;;;;22.55;15.00;;;;;;;0.08;68.20;94603.31;5071014;28;20029;-73
2022/03/08 08:29:12;;;;;;;22.90;14.98;;;;;;;0.03;68.66;94595.88;5070949;28;20036;-73
2022/03/08 08:31:38;;;;;;;21.48;13.98;;;;;;;0.08;67.89;94595.66;5071964;28;20032;-73
2022/03/08 08:34:03;;;;;;;21.35;14.05;;;;;;;0.06;67.94;94605.97;5037693;28;20028;-73
2022/03/08 08:36:28;;;;;;;24.75;16.02;;;;;;;-0.09;67.88;94607.44;5054091;28;20036;-73
2022/03/08 08:38:54;;;;;;;24.63;14.68;;;;;;;-0.13;68.31;94607.69;5071098;28;20044;-73
2022/03/08 08:41:19;;;;;;;22.65;14.55;;;;;;;-0.10;68.19;94610.91;5053981;28;20036;-73
2022/03/08 08:43:45;;;;;;;24.77;14.98;;;;;;;-0.02;67.63;94608.84;5054185;28;20029;-73
2022/03/08 08:46:11;;;;;;;21.73;14.13;;;;;;;0.01;67.53;94614.72;5070562;28;20104;-73
2022/03/08 08:48:36;;;;;;;23.60;14.30;;;;;;;-0.01;67.21;94614.78;5072025;28;20025;-73
2022/03/08 08:51:02;;;;;;;24.75;14.93;;;;;;;-0.10;67.27;94613.47;5071557;28;20054;-73
2022/03/08 08:53:27;;;;;;;24.30;15.15;;;;;;;-0.08;68.02;94611.69;5072059;28;20406;-73
2022/03/08 08:55:52;;;;;;;25.33;15.82;;;;;;;-0.06;67.62;94617.53;5070332;28;20087;-73
2022/03/08 08:58:18;;;;;;;28.20;16.40;;;;;;;-0.17;67.97;94595.94;5070349;28;20471;-73
2022/03/08 09:00:43;;;;;;;30.23;17.25;;;;;;;-0.01;67.58;94610.50;5053634;28;20025;-73
2022/03/08 09:03:14;;;;;;;24.67;15.43;;;;;;;0.01;67.18;94617.28;5070263;28;20036;-73
2022/03/08 09:05:40;;;;;;;25.88;16.08;;;;;;;-0.04;67.29;94602.16;5054428;28;20036;-73
2022/03/08 09:08:05;;;;;;;24.92;15.80;;;;;;;0.01;66.94;94601.94;5070176;28;20032;-73
2022/03/08 09:10:31;;;;;;;27.92;15.93;;;;;;;0.06;66.62;94612.78;5070043;28;20427;-73
2022/03/08 09:12:56;;;;;;;26.95;17.15;;;;;;;0.03;67.07;94603.53;5053391;28;20502;-73
2022/03/08 09:15:22;;;;;;;44.08;20.67;;;;;;;-0.01;66.26;94607.13;5069982;28;20024;-73
2022/03/08 09:17:47;;;;;;;49.67;24.27;;;;;;;-0.02;66.74;94605.47;5053469;28;20457;-73
2022/03/08 09:20:13;;;;;;;103.82;41.33;;;;;;;-0.02;66.62;94602.91;5071203;28;20035;-73
2022/03/08 09:22:39;;;;;;;60.78;28.85;;;;;;;-0.22;66.83;94619.13;5069815;28;20599;-73
2022/03/08 09:25:05;;;;;;;39.33;21.95;;;;;;;-0.16;66.56;94606.09;5053180;28;20025;-73
2022/03/08 09:27:30;;;;;;;32.38;19.15;;;;;;;0.01;66.83;94617.28;5071028;28;20186;-73
2022/03/08 09:29:56;;;;;;;30.10;18.80;;;;;;;-0.04;65.84;94612.38;5070991;28;20111;-73
2022/03/08 09:32:22;;;;;;;30.00;18.52;;;;;;;-0.10;66.45;94608.34;5053137;28;20032;-82
2022/03/08 09:34:48;;;;;;;30.50;18.48;;;;;;;0.04;66.28;94614.59;5036589;28;20463;-75
2022/03/08 09:37:14;;;;;;;28.08;17.48;;;;;;;0.10;65.90;94609.19;5069855;28;20487;-76
2022/03/08 09:39:39;;;;;;;27.10;16.13;;;;;;;0.13;65.58;94606.50;5053333;28;20477;-76
2022/03/08 09:42:05;;;;;;;29.20;18.17;;;;;;;0.14;65.66;94611.56;5052979;28;20091;-76
2022/03/08 09:44:31;;;;;;;29.50;17.20;;;;;;;0.10;65.74;94619.41;5053327;28;20037;-76
2022/03/08 09:46:56;;;;;;;28.08;16.60;;;;;;;0.08;64.42;94609.25;5070975;28;20033;-76
2022/03/08 09:49:21;;;;;;;29.48;16.52;;;;;;;0.04;64.08;94614.59;5036458;28;20032;-76
2022/03/08 09:51:47;;;;;;;30.90;17.95;;;;;;;0.03;65.16;94615.47;5052996;28;20044;-76
2022/03/08 09:54:12;;;;;;;31.40;17.30;;;;;;;0.00;64.05;94613.91;5069811;28;20036;-76
2022/03/08 09:56:38;;;;;;;28.27;17.33;;;;;;;-0.02;64.99;94613.97;5053110;28;20492;-77
2022/03/08 09:59:04;;;;;;;29.70;17.58;;;;;;;-0.08;64.55;94605.75;5053080;28;20052;-76
2022/03/08 10:01:29;;;;;;;30.27;17.80;;;;;;;0.06;64.72;94615.34;5069669;28;20028;-77
2022/03/08 10:03:55;;;;;;;30.73;18.20;;;;;;;-0.02;64.21;94596.06;5053019;28;20461;-76
2022/03/08 10:06:20;;;;;;;30.95;18.70;;;;;;;0.19;64.07;94611.31;5052982;28;20028;-76
2022/03/08 10:08:46;;;;;;;34.88;19.63;;;;;;;0.15;64.64;94620.84;5069858;28;20041;-76
2022/03/08 10:11:12;;;;;;;31.60;18.80;;;;;;;0.12;63.78;94620.19;5052850;28;20029;-76
2022/03/08 10:13:45;;;;;;;32.25;19.45;;;;;;;0.14;63.85;94623.47;5053069;28;20068;-77
2022/03/08 10:16:26;;;;;;;31.63;17.52;;;;;;;0.04;63.42;94624.81;5069537;28;20035;-77
2022/03/08 10:18:56;;;;;;;28.27;17.57;;;;;;;-0.04;63.47;94623.41;5070018;28;20033;-76
2022/03/08 10:21:29;;;;;;;26.85;16.20;;;;;;;-0.19;63.05;94630.94;5069637;28;20033;-77
2022/03/08 10:23:55;;;;;;;30.00;17.63;;;;;;;-0.07;63.27;94623.53;5052925;28;20032;-77
2022/03/08 10:26:20;;;;;;;31.55;18.27;;;;;;;-0.20;63.49;94624.97;5052687;28;20128;-77
2022/03/08 10:28:46;;;;;;;31.33;18.67;;;;;;;-0.15;63.53;94629.88;5069568;28;20465;-76
2022/03/08 10:31:13;;;;;;;36.35;21.35;;;;;;;-0.08;63.56;94619.34;5070655;28;20037;-77
2022/03/08 10:33:38;;;;;;;35.35;20.50;;;;;;;0.09;63.93;94627.97;5069747;28;20029;-77
2022/03/08 10:36:10;;;;;;;49.80;29.40;;;;;;;0.11;63.61;94626.16;5069339;28;20487;-76
2022/03/08 10:38:36;;;;;;;36.95;21.30;;;;;;;0.18;64.00;94622.44;5053358;28;20048;-77
2022/03/08 10:41:16;;;;;;;38.30;22.88;;;;;;;0.05;63.46;94627.28;5070693;28;20060;-77
2022/03/08 10:43:48;;;;;;;35.55;21.10;;;;;;;0.06;63.71;94617.91;5052926;28;20417;-76
2022/03/08 10:46:17;;;;;;;32.55;19.83;;;;;;;0.08;63.86;94616.91;5069191;28;20525;-77
2022/03/08 10:48:42;;;;;;;40.88;23.00;;;;;;;0.06;63.79;94625.56;5052799;28;20078;-76
2022/03/08 10:51:14;;;;;;;41.35;24.40;;;;;;;-0.12;62.86;94614.44;5052547;28;20033;-77
2022/03/08 10:53:39;;;;;;;;;;;;;;;-0.11;63.21;94626.28;5053544;28;20035;-75
2022/03/08 10:56:04;;;;;;;72.95;37.53;;;;;;;-0.05;64.04;94631.16;5070300;28;19916;-75
2022/03/08 10:58:30;;;;;;;46.47;28.10;;;;;;;-0.05;63.99;94633.72;5035635;28;20044;-75
2022/03/08 11:00:55;;;;;;;38.65;22.05;;;;;;;-0.03;63.90;94619.97;5068913;28;20033;-75
2022/03/08 11:03:22;;;;;;;37.60;19.90;;;;;;;0.07;63.68;94629.78;5055508;28;20032;-75
2022/03/08 11:05:49;;;;;;;41.80;25.05;;;;;;;0.13;64.27;94622.66;5056085;28;20024;-75
2022/03/08 11:08:15;;;;;;;38.97;23.55;;;;;;;0.19;63.99;94626.66;5055872;28;20029;-75
2022/03/08 11:10:41;;;;;;;40.38;25.42;;;;;;;0.11;63.13;94621.06;5038991;28;20067;-75
2022/03/08 11:13:07;;;;;;;37.75;21.98;;;;;;;0.14;62.78;94626.03;5055865;28;20039;-75